KRKS/RKS METAR and TAF weather

Enter ICAO airport designator
Station Type Date Time Source
KRKS METAR 2021/07/30 05:54 UTC NOAA

KRKS 300554Z AUTO 07010KT 10SM BKN095 21/11 A3031 RMK AO2 LTG DSNT SE SLP171 T02060106 10283 20200 51013


Station Type Date Time Source
KRKS Decoded METAR 2021/07/30 05:54 UTC NOAA

ROCK SPRINGS-SWEETWATER CO, WY, United States (KRKS) 41-36N 109-03W
Jul 30, 2021 - 01:54 AM EDT / 2021.07.30 0554 UTC
Wind: from the ENE (070 degrees) at 12 MPH (10 KT):0
Visibility: 10 mile(s):0
Sky conditions: mostly cloudy
Weather: Lightning observed
Temperature: 69.1 F (20.6 C)
Dew Point: 51.1 F (10.6 C)
Relative Humidity: 52%
Pressure (altimeter): 30.31 in. Hg (1026 hPa)
Pressure tendency: 0.04 inches (1.3 hPa) higher than three hours ago
ob: KRKS 300554Z AUTO 07010KT 10SM BKN095 21/11 A3031 RMK AO2 LTG DSNT SE SLP171 T02060106 10283 20200 51013
cycle: 6

Station Type Date Time Source
KRKS TAF 2021/07/30 06:24 UTC NOAA

TAF KRKS 300521Z 3006/3106 06008KT P6SM SCT100 BKN150
FM300900 12008KT P6SM VCSH BKN100
FM301400 10008KT P6SM SCT100 BKN150
FM301900 15012G24KT P6SM VCTS SCT080CB BKN120
FM310200 08012KT P6SM VCSH BKN080 OVC120
FM310500 06012KT P6SM OVC080

Example: see airport list